createdAt,value
2022-09-09T00:02:24.795Z,2.67
2022-09-09T00:05:03.264Z,2.50
2022-09-09T00:07:36.267Z,3.20
2022-09-09T00:10:21.863Z,3.20
2022-09-09T00:13:17.053Z,2.72
2022-09-09T00:16:08.537Z,3.47
2022-09-09T00:18:41.508Z,3.00
2022-09-09T00:21:16.572Z,3.05
2022-09-09T00:23:54.074Z,2.72
2022-09-09T00:26:39.627Z,2.78
2022-09-09T00:29:30.976Z,3.47
2022-09-09T00:32:12.567Z,2.60
2022-09-09T00:34:50.992Z,2.72
2022-09-09T00:37:22.176Z,2.65
2022-09-09T00:39:50.565Z,2.70
2022-09-09T00:42:24.322Z,2.33
2022-09-09T00:47:52.888Z,3.63
2022-09-09T00:50:53.338Z,3.00
2022-09-09T00:53:26.121Z,2.53
2022-09-09T00:56:22.710Z,2.77
2022-09-09T00:59:01.360Z,2.80
2022-09-09T01:01:28.354Z,2.70
2022-09-09T01:03:56.900Z,3.80
2022-09-09T01:06:33.411Z,2.90
2022-09-09T01:09:03.599Z,3.30
2022-09-09T01:11:56.383Z,3.30
2022-09-09T01:14:36.502Z,2.78
2022-09-09T01:17:19.990Z,2.63
2022-09-09T01:20:20.142Z,2.97
2022-09-09T01:23:39.681Z,3.22
2022-09-09T01:26:39.439Z,3.05
2022-09-09T01:29:13.596Z,2.67
2022-09-09T01:32:03.579Z,2.90
2022-09-09T01:34:41.252Z,3.00
2022-09-09T01:37:11.048Z,2.60
2022-09-09T01:39:41.366Z,3.10
2022-09-09T01:42:15.443Z,2.63
2022-09-09T01:44:43.149Z,3.08
2022-09-09T01:47:10.450Z,2.60
2022-09-09T01:49:52.946Z,2.70
2022-09-09T01:52:24.834Z,3.47
2022-09-09T01:54:52.049Z,2.75
2022-09-09T01:57:32.237Z,3.03
2022-09-09T02:00:10.196Z,2.85
2022-09-09T02:02:49.807Z,3.45
2022-09-09T02:05:44.480Z,3.13
2022-09-09T02:08:25.585Z,3.78
2022-09-09T02:11:04.993Z,3.30
2022-09-09T02:13:40.140Z,2.97
2022-09-09T02:16:38.226Z,2.95
2022-09-09T02:19:29.757Z,2.83
2022-09-09T02:22:13.455Z,3.22
2022-09-09T02:24:41.350Z,2.80
2022-09-09T02:27:17.275Z,3.00
2022-09-09T02:29:48.459Z,3.40
2022-09-09T02:32:22.934Z,3.40
2022-09-09T02:34:55.206Z,3.00
2022-09-09T02:37:29.445Z,3.28
2022-09-09T02:39:57.674Z,3.63
2022-09-09T02:42:25.353Z,3.50
2022-09-09T02:44:55.237Z,3.28
2022-09-09T02:47:56.063Z,3.08
2022-09-09T02:50:49.027Z,3.05
2022-09-09T02:53:24.407Z,2.80
2022-09-09T02:55:57.398Z,3.50
2022-09-09T02:58:25.187Z,3.33
2022-09-09T03:01:02.197Z,3.42
2022-09-09T03:03:31.329Z,3.85
2022-09-09T03:06:00.243Z,3.10
2022-09-09T03:08:28.708Z,2.90
2022-09-09T03:11:02.330Z,3.38
2022-09-09T03:13:32.536Z,3.15
2022-09-09T03:15:59.879Z,3.30
2022-09-09T03:18:29.153Z,3.90
2022-09-09T03:20:56.192Z,3.83
2022-09-09T03:23:23.956Z,3.42
2022-09-09T03:25:52.285Z,3.45
2022-09-09T03:28:32.279Z,3.08
2022-09-09T03:31:06.083Z,3.45
2022-09-09T03:33:42.297Z,3.20
2022-09-09T03:36:12.088Z,3.30
2022-09-09T03:38:39.350Z,3.70
2022-09-09T03:41:07.112Z,3.15
2022-09-09T03:43:34.880Z,3.50
2022-09-09T03:46:02.144Z,4.22
2022-09-09T03:48:30.429Z,3.30
2022-09-09T03:51:01.632Z,3.65
2022-09-09T03:53:30.321Z,3.67
2022-09-09T03:56:00.637Z,4.00
2022-09-09T03:58:29.146Z,3.95
2022-09-09T04:03:34.542Z,3.47
2022-09-09T04:06:04.170Z,4.18
2022-09-09T04:08:32.991Z,3.90
2022-09-09T04:11:06.326Z,4.30
2022-09-09T04:16:04.727Z,3.53
2022-09-09T04:18:33.166Z,4.35
2022-09-09T04:21:01.172Z,4.20
2022-09-09T04:23:30.574Z,3.97
2022-09-09T04:26:00.112Z,4.57
2022-09-09T04:28:31.031Z,4.85
2022-09-09T04:31:05.590Z,4.25
2022-09-09T04:33:36.995Z,4.40
2022-09-09T04:36:07.566Z,4.15
2022-09-09T04:38:34.614Z,4.00
2022-09-09T04:41:02.496Z,3.92
2022-09-09T04:43:31.736Z,4.32
2022-09-09T04:46:02.682Z,3.72
2022-09-09T04:48:32.114Z,4.00
2022-09-09T04:51:07.765Z,3.60
2022-09-09T04:53:35.399Z,3.88
2022-09-09T04:56:11.046Z,4.72
2022-09-09T04:58:45.355Z,4.63
2022-09-09T05:01:14.537Z,3.90
2022-09-09T05:03:46.340Z,4.53
2022-09-09T05:06:18.661Z,3.65
2022-09-09T05:08:49.392Z,4.00
2022-09-09T05:11:26.837Z,4.35
2022-09-09T05:13:58.071Z,4.32
2022-09-09T05:16:25.358Z,4.00
2022-09-09T05:18:52.497Z,4.38
2022-09-09T05:21:22.489Z,3.97
2022-09-09T05:23:49.881Z,4.97
2022-09-09T05:26:18.403Z,4.20
2022-09-09T05:28:48.464Z,3.90
2022-09-09T05:31:18.197Z,3.83
2022-09-09T05:33:49.226Z,3.85
2022-09-09T05:36:18.987Z,4.25
2022-09-09T05:38:48.581Z,3.75
2022-09-09T05:41:26.390Z,4.57
2022-09-09T05:43:55.981Z,4.93
2022-09-09T05:46:26.114Z,4.25
2022-09-09T05:48:55.132Z,4.22
2022-09-09T05:54:00.223Z,4.30
2022-09-09T05:56:31.072Z,4.22
2022-09-09T05:59:01.105Z,4.35
2022-09-09T06:01:34.246Z,4.20
2022-09-09T06:04:03.738Z,4.03
2022-09-09T06:06:37.490Z,4.47
2022-09-09T06:09:10.726Z,3.58
2022-09-09T06:11:40.443Z,4.00
2022-09-09T06:14:09.233Z,3.97
2022-09-09T06:16:43.348Z,4.55
2022-09-09T06:19:17.071Z,4.28
2022-09-09T06:21:45.488Z,4.55
2022-09-09T06:24:14.847Z,3.90
2022-09-09T06:26:42.366Z,4.20
2022-09-09T06:29:12.177Z,4.13
2022-09-09T06:31:40.287Z,3.63
2022-09-09T06:34:14.245Z,3.58
2022-09-09T06:36:46.886Z,5.45
2022-09-09T06:39:15.271Z,3.85
2022-09-09T06:41:44.182Z,4.18
2022-09-09T06:44:39.928Z,4.72
2022-09-09T06:47:10.434Z,4.00
2022-09-09T06:49:37.383Z,3.85
2022-09-09T06:52:10.422Z,3.25
2022-09-09T06:54:38.499Z,4.05
2022-09-09T06:57:33.593Z,4.05
2022-09-09T06:59:56.043Z,4.10
2022-09-09T07:02:23.173Z,3.40
2022-09-09T07:04:52.061Z,3.38
2022-09-09T07:07:19.211Z,3.05
2022-09-09T07:09:47.168Z,3.38
2022-09-09T07:12:14.460Z,3.78
2022-09-09T07:14:51.052Z,3.50
2022-09-09T07:17:18.075Z,2.92
2022-09-09T07:19:45.098Z,3.63
2022-09-09T07:22:12.083Z,3.70
2022-09-09T07:24:39.933Z,3.10
2022-09-09T07:27:07.595Z,4.22
2022-09-09T07:29:36.223Z,4.03
2022-09-09T07:32:05.276Z,3.58
2022-09-09T07:34:36.197Z,3.40
2022-09-09T07:37:03.262Z,3.58
2022-09-09T07:39:31.948Z,3.50
2022-09-09T07:41:59.740Z,3.42
2022-09-09T07:44:28.008Z,3.38
2022-09-09T07:47:02.844Z,2.78
2022-09-09T07:49:35.856Z,2.85
2022-09-09T07:52:04.980Z,2.80
2022-09-09T07:54:33.208Z,3.00
2022-09-09T07:57:01.812Z,2.83
2022-09-09T07:59:31.406Z,3.20
2022-09-09T08:01:59.519Z,2.67
2022-09-09T08:04:30.453Z,3.08
2022-09-09T08:07:00.340Z,2.45
2022-09-09T08:09:30.063Z,3.40
2022-09-09T08:12:21.585Z,2.80
2022-09-09T08:14:49.770Z,2.40
2022-09-09T08:17:17.176Z,3.10
2022-09-09T08:19:45.613Z,4.88
2022-09-09T08:22:17.905Z,5.97
2022-09-09T08:24:45.269Z,3.33
2022-09-09T08:27:13.839Z,3.10
2022-09-09T08:29:41.144Z,2.60
2022-09-09T08:32:08.256Z,2.80
2022-09-09T08:34:41.243Z,2.90
2022-09-09T08:37:12.988Z,2.88
2022-09-09T08:39:41.460Z,2.80
2022-09-09T08:42:35.948Z,2.60
2022-09-09T08:45:25.147Z,2.58
2022-09-09T08:48:10.359Z,2.75
2022-09-09T08:50:42.266Z,2.65
2022-09-09T08:53:26.036Z,2.72
2022-09-09T08:55:59.824Z,2.92
2022-09-09T08:58:55.709Z,2.95
2022-09-09T09:01:47.710Z,3.17
2022-09-09T09:04:34.732Z,3.00
2022-09-09T09:07:02.142Z,2.80
2022-09-09T09:10:09.123Z,3.22
2022-09-09T09:12:48.539Z,3.33
2022-09-09T09:15:28.294Z,3.00
2022-09-09T09:17:58.573Z,3.83
2022-09-09T09:21:06.736Z,2.67
2022-09-09T09:23:51.988Z,2.95
2022-09-09T09:26:20.688Z,2.47
2022-09-09T09:28:48.113Z,2.83
2022-09-09T09:31:19.328Z,2.90
2022-09-09T09:33:51.277Z,2.60
2022-09-09T09:36:24.593Z,3.35
2022-09-09T09:41:46.762Z,2.90
2022-09-09T09:44:41.485Z,3.22
2022-09-09T09:47:20.241Z,3.22
2022-09-09T09:50:05.083Z,3.60
2022-09-09T09:52:37.819Z,3.20
2022-09-09T09:55:15.399Z,3.30
2022-09-09T09:57:45.754Z,3.65
2022-09-09T10:00:22.329Z,3.25
2022-09-09T10:02:57.612Z,3.00
2022-09-09T10:05:35.577Z,3.08
2022-09-09T10:08:14.027Z,2.40
2022-09-09T10:10:56.885Z,3.08
2022-09-09T10:13:24.967Z,3.40
2022-09-09T10:16:03.300Z,2.50
2022-09-09T10:18:57.242Z,2.08
2022-09-09T10:21:46.035Z,2.00
2022-09-09T10:24:38.243Z,2.50
2022-09-09T10:27:35.990Z,2.70
2022-09-09T10:30:34.290Z,2.30
2022-09-09T10:33:28.879Z,2.20
2022-09-09T10:36:21.935Z,2.42
2022-09-09T10:39:27.509Z,1.90
2022-09-09T10:42:10.968Z,1.95
2022-09-09T10:44:44.799Z,2.08
2022-09-09T10:47:51.248Z,1.70
2022-09-09T10:50:38.050Z,2.17
2022-09-09T10:53:34.399Z,2.00
2022-09-09T10:56:09.176Z,2.30
2022-09-09T10:59:00.073Z,1.90
2022-09-09T11:01:35.346Z,2.25
2022-09-09T11:04:11.534Z,2.40
2022-09-09T11:06:47.523Z,1.90
2022-09-09T11:09:19.280Z,2.55
2022-09-09T11:11:57.239Z,2.30
2022-09-09T11:14:49.660Z,2.00
2022-09-09T11:17:34.743Z,2.50
2022-09-09T11:20:01.945Z,2.33
2022-09-09T11:22:34.207Z,2.53
2022-09-09T11:25:15.421Z,1.77
2022-09-09T11:28:12.342Z,2.28
2022-09-09T11:30:56.646Z,1.95
2022-09-09T11:33:50.124Z,2.42
2022-09-09T11:36:38.131Z,2.42
2022-09-09T11:39:16.831Z,2.38
2022-09-09T11:41:45.363Z,2.55
2022-09-09T11:44:25.119Z,2.00
2022-09-09T11:46:53.233Z,2.22
2022-09-09T11:49:30.337Z,1.83
2022-09-09T11:51:57.290Z,2.00
2022-09-09T11:54:33.364Z,2.30
2022-09-09T11:57:00.795Z,2.10
2022-09-09T11:59:29.979Z,2.20
2022-09-09T12:01:58.722Z,1.92
2022-09-09T12:04:25.670Z,2.00
2022-09-09T12:07:05.424Z,1.85
2022-09-09T12:09:51.174Z,1.88
2022-09-09T12:12:31.946Z,2.25
2022-09-09T12:15:08.270Z,1.75
2022-09-09T12:17:57.232Z,1.90
2022-09-09T12:20:37.421Z,1.92
2022-09-09T12:23:33.943Z,1.70
2022-09-09T12:26:35.155Z,2.00
2022-09-09T12:29:20.391Z,1.90
2022-09-09T12:31:57.893Z,2.20
2022-09-09T12:34:37.451Z,1.70
2022-09-09T12:37:34.577Z,1.58
2022-09-09T12:40:23.147Z,1.80
2022-09-09T12:42:51.039Z,1.52
2022-09-09T12:45:18.412Z,1.60
2022-09-09T12:47:54.510Z,1.30
2022-09-09T12:50:31.020Z,1.70
2022-09-09T12:53:01.439Z,1.55
2022-09-09T12:55:37.897Z,1.33
2022-09-09T12:58:07.134Z,1.70
2022-09-09T13:00:35.525Z,1.50
2022-09-09T13:03:15.713Z,1.52
2022-09-09T13:05:43.312Z,1.83
2022-09-09T13:08:13.392Z,1.70
2022-09-09T13:10:52.794Z,1.55
2022-09-09T13:13:27.140Z,1.83
2022-09-09T13:15:57.217Z,1.58
2022-09-09T13:18:29.631Z,1.70
2022-09-09T13:20:58.970Z,1.42
2022-09-09T13:23:30.518Z,1.33
2022-09-09T13:26:02.773Z,1.38
2022-09-09T13:28:33.737Z,1.02
2022-09-09T13:31:08.110Z,1.37
2022-09-09T13:33:38.353Z,1.23
2022-09-09T13:36:07.129Z,1.23
2022-09-09T13:39:01.710Z,1.40
2022-09-09T13:41:37.884Z,1.30
2022-09-09T13:44:07.562Z,1.08
2022-09-09T13:46:41.836Z,1.35
2022-09-09T13:49:11.688Z,1.30
2022-09-09T13:51:50.011Z,1.38
2022-09-09T13:54:19.547Z,1.60
2022-09-09T13:56:47.198Z,1.58
2022-09-09T13:59:17.031Z,1.98
2022-09-09T14:01:44.061Z,1.73
2022-09-09T14:04:11.725Z,1.30
2022-09-09T14:06:40.485Z,1.40
2022-09-09T14:09:09.076Z,1.48
2022-09-09T14:11:36.080Z,1.45
2022-09-09T14:14:03.034Z,1.60
2022-09-09T14:16:30.397Z,1.40
2022-09-09T14:18:58.168Z,1.65
2022-09-09T14:21:25.335Z,1.30
2022-09-09T14:23:53.801Z,1.67
2022-09-09T14:26:22.452Z,1.70
2022-09-09T14:28:57.936Z,1.45
2022-09-09T14:31:25.858Z,1.55
2022-09-09T14:33:53.582Z,1.20
2022-09-09T14:36:20.883Z,1.70
2022-09-09T14:38:48.036Z,1.60
2022-09-09T14:41:18.035Z,1.52
2022-09-09T14:43:45.897Z,1.70
2022-09-09T14:46:15.547Z,2.05
2022-09-09T14:48:42.709Z,1.88
2022-09-09T14:51:11.706Z,1.98
2022-09-09T14:53:38.864Z,1.67
2022-09-09T14:56:11.506Z,1.88
2022-09-09T14:58:39.038Z,1.77
2022-09-09T15:01:07.796Z,2.25
2022-09-09T15:03:35.444Z,1.75
2022-09-09T15:06:13.892Z,1.95
2022-09-09T15:08:44.280Z,2.20
2022-09-09T15:11:12.924Z,1.85
2022-09-09T15:13:41.144Z,2.05
2022-09-09T15:16:17.625Z,1.90
2022-09-09T15:18:45.998Z,1.70
2022-09-09T15:21:20.089Z,2.15
2022-09-09T15:23:48.523Z,1.80
2022-09-09T15:26:16.751Z,2.00
2022-09-09T15:28:45.342Z,1.95
2022-09-09T15:31:20.500Z,1.95
2022-09-09T15:33:50.923Z,1.88
2022-09-09T15:36:19.205Z,2.25
2022-09-09T15:38:46.599Z,2.35
2022-09-09T15:41:15.243Z,2.30
2022-09-09T15:43:50.998Z,3.72
2022-09-09T15:46:17.905Z,2.30
2022-09-09T15:48:47.278Z,3.08
2022-09-09T15:51:38.148Z,3.42
2022-09-09T15:54:02.968Z,2.60
2022-09-09T15:56:31.534Z,2.30
2022-09-09T15:58:59.851Z,2.30
2022-09-09T16:01:28.079Z,1.95
2022-09-09T16:03:55.414Z,1.80
2022-09-09T16:06:24.548Z,2.15
2022-09-09T16:08:53.988Z,1.73
2022-09-09T16:11:29.766Z,1.98
2022-09-09T16:13:57.011Z,1.70
2022-09-09T16:16:26.496Z,2.10
2022-09-09T16:18:56.227Z,2.38
2022-09-09T16:21:40.972Z,1.75
2022-09-09T16:24:09.883Z,2.00
2022-09-09T16:26:39.035Z,1.80
2022-09-09T16:29:06.657Z,1.75
2022-09-09T16:31:33.807Z,1.88
2022-09-09T16:34:01.059Z,1.73
2022-09-09T16:36:33.019Z,1.95
2022-09-09T16:39:02.512Z,1.50
2022-09-09T16:41:30.510Z,1.33
2022-09-09T16:44:00.399Z,1.50
2022-09-09T16:46:29.369Z,1.55
2022-09-09T16:49:02.363Z,1.83
2022-09-09T16:51:32.305Z,1.70
2022-09-09T16:54:01.667Z,1.35
2022-09-09T16:56:31.242Z,1.60
2022-09-09T16:59:03.367Z,1.50
2022-09-09T17:01:33.928Z,1.67
2022-09-09T17:04:03.446Z,1.85
2022-09-09T17:06:32.301Z,2.28
2022-09-09T17:09:02.368Z,1.63
2022-09-09T17:11:30.128Z,1.80
2022-09-09T17:13:59.107Z,2.38
2022-09-09T17:16:31.066Z,2.55
2022-09-09T17:18:59.638Z,3.10
2022-09-09T17:21:27.691Z,2.17
2022-09-09T17:23:56.579Z,2.90
2022-09-09T17:26:27.836Z,2.28
2022-09-09T17:28:59.418Z,3.47
2022-09-09T17:31:28.556Z,4.15
2022-09-09T17:33:56.524Z,2.70
2022-09-09T17:36:32.245Z,2.40
2022-09-09T17:39:00.862Z,2.60
2022-09-09T17:41:33.503Z,3.08
2022-09-09T17:44:01.281Z,3.15
2022-09-09T17:46:34.928Z,3.10
2022-09-09T17:49:07.491Z,2.70
2022-09-09T17:51:36.051Z,2.42
2022-09-09T17:54:25.506Z,2.55
2022-09-09T17:56:53.353Z,2.67
2022-09-09T17:59:20.311Z,3.65
2022-09-09T18:01:49.626Z,2.30
2022-09-09T18:04:18.140Z,2.50
2022-09-09T18:06:50.694Z,2.70
2022-09-09T18:09:20.818Z,2.83
2022-09-09T18:11:50.738Z,2.72
2022-09-09T18:14:20.275Z,3.00
2022-09-09T18:16:48.038Z,2.67
2022-09-09T18:19:17.496Z,2.72
2022-09-09T18:21:45.586Z,2.58
2022-09-09T18:24:14.181Z,3.17
2022-09-09T18:26:41.936Z,2.72
2022-09-09T18:29:14.782Z,2.53
2022-09-09T18:31:42.577Z,2.10
2022-09-09T18:34:12.196Z,2.38
2022-09-09T18:36:44.787Z,2.75
2022-09-09T18:39:13.899Z,2.50
2022-09-09T18:41:46.675Z,2.70
2022-09-09T18:44:17.388Z,2.33
2022-09-09T18:46:44.910Z,2.15
2022-09-09T18:49:12.624Z,2.75
2022-09-09T18:51:41.293Z,2.20
2022-09-09T18:54:13.967Z,2.97
2022-09-09T18:56:41.423Z,2.72
2022-09-09T18:59:11.077Z,2.50
2022-09-09T19:01:38.859Z,2.85
2022-09-09T19:04:07.658Z,2.75
2022-09-09T19:06:39.095Z,3.00
2022-09-09T19:09:06.393Z,2.80
2022-09-09T19:11:33.824Z,2.67
2022-09-09T19:14:03.839Z,2.83
2022-09-09T19:16:33.270Z,2.88
2022-09-09T19:19:20.804Z,2.83
2022-09-09T19:21:48.279Z,2.92
2022-09-09T19:24:24.635Z,2.97
2022-09-09T19:26:54.396Z,2.65
2022-09-09T19:29:23.660Z,3.17
2022-09-09T19:32:29.280Z,2.72
2022-09-09T19:34:40.401Z,2.65
2022-09-09T19:37:07.807Z,2.40
2022-09-09T19:39:34.861Z,2.67
2022-09-09T19:42:01.989Z,2.80
2022-09-09T19:44:29.373Z,3.83
2022-09-09T19:46:56.296Z,2.65
2022-09-09T19:49:23.399Z,3.35
2022-09-09T19:51:50.427Z,2.72
2022-09-09T19:54:17.463Z,2.75
2022-09-09T19:56:44.867Z,3.08
2022-09-09T19:59:13.054Z,2.83
2022-09-09T20:01:44.644Z,2.88
2022-09-09T20:04:13.326Z,4.13
2022-09-09T20:06:41.816Z,2.92
2022-09-09T20:09:14.570Z,2.88
2022-09-09T20:11:43.215Z,3.00
2022-09-09T20:14:11.688Z,3.15
2022-09-09T20:16:39.693Z,3.15
2022-09-09T20:19:11.091Z,3.00
2022-09-09T20:21:48.369Z,3.20
2022-09-09T20:24:18.821Z,3.00
2022-09-09T20:26:47.995Z,2.90
2022-09-09T20:29:17.301Z,2.78
2022-09-09T20:31:45.128Z,3.03
2022-09-09T20:34:14.367Z,3.08
2022-09-09T20:36:42.278Z,3.17
2022-09-09T20:39:12.612Z,2.90
2022-09-09T20:41:41.018Z,2.92
2022-09-09T20:44:14.245Z,3.92
2022-09-09T20:46:54.200Z,3.60
2022-09-09T20:49:23.058Z,3.03
2022-09-09T20:51:51.113Z,3.20
2022-09-09T20:54:23.626Z,3.33
2022-09-09T20:56:55.093Z,3.30
2022-09-09T20:59:27.623Z,2.97
2022-09-09T21:01:56.930Z,3.90
2022-09-09T21:04:25.060Z,3.38
2022-09-09T21:06:52.434Z,3.80
2022-09-09T21:09:20.421Z,3.63
2022-09-09T21:11:47.366Z,3.33
2022-09-09T21:14:14.652Z,3.35
2022-09-09T21:16:41.803Z,4.15
2022-09-09T21:19:09.524Z,3.75
2022-09-09T21:21:37.248Z,3.72
2022-09-09T21:24:04.706Z,3.50
2022-09-09T21:26:31.970Z,3.67
2022-09-09T21:28:59.097Z,3.40
2022-09-09T21:31:28.084Z,3.33
2022-09-09T21:33:57.140Z,4.18
2022-09-09T21:36:25.470Z,3.55
2022-09-09T21:38:52.397Z,3.42
2022-09-09T21:41:19.549Z,3.03
2022-09-09T21:43:51.355Z,3.50
2022-09-09T21:46:18.758Z,3.17
2022-09-09T21:48:45.818Z,3.10
2022-09-09T21:51:14.924Z,3.22
2022-09-09T21:53:43.418Z,3.40
2022-09-09T21:56:12.904Z,3.83
2022-09-09T21:58:41.167Z,3.13
2022-09-09T22:01:12.852Z,2.88
2022-09-09T22:03:40.488Z,2.80
2022-09-09T22:06:09.651Z,3.05
2022-09-09T22:08:36.738Z,2.80
2022-09-09T22:11:19.287Z,2.97
2022-09-09T22:13:46.311Z,2.53
2022-09-09T22:16:14.888Z,3.25
2022-09-09T22:18:41.986Z,3.13
2022-09-09T22:21:11.779Z,3.35
2022-09-09T22:23:38.714Z,3.28
2022-09-09T22:26:06.566Z,3.40
2022-09-09T22:28:34.880Z,3.63
2022-09-09T22:31:02.248Z,3.85
2022-09-09T22:33:29.363Z,3.80
2022-09-09T22:35:56.363Z,4.60
2022-09-09T22:38:23.285Z,4.47
2022-09-09T22:40:50.773Z,5.15
2022-09-09T22:43:21.077Z,6.28
2022-09-09T22:45:48.714Z,5.38
2022-09-09T22:48:16.815Z,4.95
2022-09-09T22:50:44.365Z,5.72
2022-09-09T22:53:14.858Z,5.30
2022-09-09T22:55:41.819Z,6.05
2022-09-09T22:58:09.744Z,5.57
2022-09-09T23:00:40.843Z,5.53
2022-09-09T23:03:08.290Z,5.88
2022-09-09T23:05:35.321Z,5.38
2022-09-09T23:08:02.441Z,5.88
2022-09-09T23:10:32.106Z,5.50
2022-09-09T23:12:59.554Z,5.68
2022-09-09T23:15:28.334Z,7.13
2022-09-09T23:17:55.766Z,6.55
2022-09-09T23:20:24.185Z,6.18
2022-09-09T23:22:51.408Z,6.97
2022-09-09T23:25:18.445Z,7.10
2022-09-09T23:27:45.615Z,6.95
2022-09-09T23:30:12.984Z,7.35
2022-09-09T23:32:39.888Z,7.00
2022-09-09T23:35:07.580Z,6.32
2022-09-09T23:37:34.920Z,7.28
2022-09-09T23:40:02.196Z,7.43
2022-09-09T23:42:33.401Z,8.02
2022-09-09T23:45:00.475Z,7.30
2022-09-09T23:47:28.337Z,8.00
2022-09-09T23:49:55.275Z,7.15
2022-09-09T23:52:25.195Z,7.10
2022-09-09T23:54:52.163Z,6.80
2022-09-09T23:57:19.103Z,6.95
2022-09-09T23:59:46.024Z,7.28
